sensor_id;sensor_type;location;lat;lon;timestamp;temperature;humidity
9965;DHT22;5023;53.554;9.964;2023-07-16T00:00:26;20.10;99.90
9965;DHT22;5023;53.554;9.964;2023-07-16T00:05:28;20.00;99.90
9965;DHT22;5023;53.554;9.964;2023-07-16T00:10:34;20.00;99.90
9965;DHT22;5023;53.554;9.964;2023-07-16T00:15:39;20.00;99.90
9965;DHT22;5023;53.554;9.964;2023-07-16T00:20:41;19.90;99.90
9965;DHT22;5023;53.554;9.964;2023-07-16T00:25:44;19.80;99.90
9965;DHT22;5023;53.554;9.964;2023-07-16T00:30:46;19.70;99.90
9965;DHT22;5023;53.554;9.964;2023-07-16T00:35:49;19.80;99.90
9965;DHT22;5023;53.554;9.964;2023-07-16T00:40:52;19.70;99.90
9965;DHT22;5023;53.554;9.964;2023-07-16T00:45:55;19.60;99.90
9965;DHT22;5023;53.554;9.964;2023-07-16T00:50:57;19.50;99.90
9965;DHT22;5023;53.554;9.964;2023-07-16T00:56:00;19.50;99.90
9965;DHT22;5023;53.554;9.964;2023-07-16T01:01:05;19.50;99.90
9965;DHT22;5023;53.554;9.964;2023-07-16T01:06:11;19.60;99.90
9965;DHT22;5023;53.554;9.964;2023-07-16T01:11:16;19.70;99.90
9965;DHT22;5023;53.554;9.964;2023-07-16T01:16:19;19.80;99.90
9965;DHT22;5023;53.554;9.964;2023-07-16T01:21:23;19.70;99.90
9965;DHT22;5023;53.554;9.964;2023-07-16T01:26:36;19.70;99.90
9965;DHT22;5023;53.554;9.964;2023-07-16T01:31:45;19.70;99.90
9965;DHT22;5023;53.554;9.964;2023-07-16T01:36:48;19.70;99.90
9965;DHT22;5023;53.554;9.964;2023-07-16T01:41:51;19.80;99.90
9965;DHT22;5023;53.554;9.964;2023-07-16T01:47:05;19.80;99.90
9965;DHT22;5023;53.554;9.964;2023-07-16T01:52:08;19.90;99.90
9965;DHT22;5023;53.554;9.964;2023-07-16T01:57:10;19.90;99.90
9965;DHT22;5023;53.554;9.964;2023-07-16T02:02:14;20.00;99.90
9965;DHT22;5023;53.554;9.964;2023-07-16T02:07:15;19.90;99.90
9965;DHT22;5023;53.554;9.964;2023-07-16T02:12:18;19.80;99.90
9965;DHT22;5023;53.554;9.964;2023-07-16T02:17:21;19.80;99.90
9965;DHT22;5023;53.554;9.964;2023-07-16T02:22:23;19.80;99.90
9965;DHT22;5023;53.554;9.964;2023-07-16T02:27:25;19.90;99.90
9965;DHT22;5023;53.554;9.964;2023-07-16T02:32:28;19.80;99.90
9965;DHT22;5023;53.554;9.964;2023-07-16T02:37:30;19.70;99.90
9965;DHT22;5023;53.554;9.964;2023-07-16T02:42:32;19.80;99.90
9965;DHT22;5023;53.554;9.964;2023-07-16T02:47:36;19.80;99.90
9965;DHT22;5023;53.554;9.964;2023-07-16T02:52:38;19.80;99.90
9965;DHT22;5023;53.554;9.964;2023-07-16T02:57:40;19.70;99.90
9965;DHT22;5023;53.554;9.964;2023-07-16T03:02:43;19.70;99.90
9965;DHT22;5023;53.554;9.964;2023-07-16T03:07:45;19.70;99.90
9965;DHT22;5023;53.554;9.964;2023-07-16T03:12:47;19.70;99.90
9965;DHT22;5023;53.554;9.964;2023-07-16T03:17:50;19.70;99.90
9965;DHT22;5023;53.554;9.964;2023-07-16T03:22:52;19.60;99.90
9965;DHT22;5023;53.554;9.964;2023-07-16T03:27:54;19.60;99.90
9965;DHT22;5023;53.554;9.964;2023-07-16T03:32:57;19.60;99.90
9965;DHT22;5023;53.554;9.964;2023-07-16T03:37:59;19.50;99.90
9965;DHT22;5023;53.554;9.964;2023-07-16T03:43:01;19.60;99.90
9965;DHT22;5023;53.554;9.964;2023-07-16T03:48:05;19.50;99.90
9965;DHT22;5023;53.554;9.964;2023-07-16T03:53:07;19.50;99.90
9965;DHT22;5023;53.554;9.964;2023-07-16T03:58:09;19.50;99.90
9965;DHT22;5023;53.554;9.964;2023-07-16T04:03:12;19.50;99.90
9965;DHT22;5023;53.554;9.964;2023-07-16T04:08:14;19.40;99.90
9965;DHT22;5023;53.554;9.964;2023-07-16T04:13:16;19.40;99.90
9965;DHT22;5023;53.554;9.964;2023-07-16T04:18:19;19.40;99.90
9965;DHT22;5023;53.554;9.964;2023-07-16T04:23:21;19.40;99.90
9965;DHT22;5023;53.554;9.964;2023-07-16T04:28:23;19.30;99.90
9965;DHT22;5023;53.554;9.964;2023-07-16T04:33:27;19.30;99.90
9965;DHT22;5023;53.554;9.964;2023-07-16T04:38:29;19.30;99.90
9965;DHT22;5023;53.554;9.964;2023-07-16T04:43:30;19.40;99.90
9965;DHT22;5023;53.554;9.964;2023-07-16T04:48:34;19.50;99.90
9965;DHT22;5023;53.554;9.964;2023-07-16T04:53:36;19.60;99.90
9965;DHT22;5023;53.554;9.964;2023-07-16T04:58:38;19.60;99.90
9965;DHT22;5023;53.554;9.964;2023-07-16T05:03:41;19.60;99.90
9965;DHT22;5023;53.554;9.964;2023-07-16T05:08:43;19.60;99.90
9965;DHT22;5023;53.554;9.964;2023-07-16T05:13:45;19.60;99.90
9965;DHT22;5023;53.554;9.964;2023-07-16T05:18:48;19.70;99.90
9965;DHT22;5023;53.554;9.964;2023-07-16T05:23:50;19.80;99.90
9965;DHT22;5023;53.554;9.964;2023-07-16T05:28:52;19.90;99.90
9965;DHT22;5023;53.554;9.964;2023-07-16T05:33:55;19.90;99.90
9965;DHT22;5023;53.554;9.964;2023-07-16T05:38:57;19.90;99.90
9965;DHT22;5023;53.554;9.964;2023-07-16T05:43:59;20.00;99.90
9965;DHT22;5023;53.554;9.964;2023-07-16T05:49:02;20.00;99.90
9965;DHT22;5023;53.554;9.964;2023-07-16T05:54:04;20.10;99.90
9965;DHT22;5023;53.554;9.964;2023-07-16T05:59:07;20.10;99.90
9965;DHT22;5023;53.554;9.964;2023-07-16T06:04:10;20.20;99.90
9965;DHT22;5023;53.554;9.964;2023-07-16T06:09:12;20.20;99.90
9965;DHT22;5023;53.554;9.964;2023-07-16T06:14:14;20.30;99.90
9965;DHT22;5023;53.554;9.964;2023-07-16T06:19:17;20.40;99.90
9965;DHT22;5023;53.554;9.964;2023-07-16T06:24:19;20.50;99.90
9965;DHT22;5023;53.554;9.964;2023-07-16T06:29:21;20.60;99.90
9965;DHT22;5023;53.554;9.964;2023-07-16T06:34:25;20.70;99.90
9965;DHT22;5023;53.554;9.964;2023-07-16T06:39:27;20.70;99.90
9965;DHT22;5023;53.554;9.964;2023-07-16T06:44:28;20.70;99.90
9965;DHT22;5023;53.554;9.964;2023-07-16T06:49:32;20.70;99.90
9965;DHT22;5023;53.554;9.964;2023-07-16T06:54:34;20.80;99.90
9965;DHT22;5023;53.554;9.964;2023-07-16T06:59:36;20.90;99.90
9965;DHT22;5023;53.554;9.964;2023-07-16T07:04:39;21.00;99.90
9965;DHT22;5023;53.554;9.964;2023-07-16T07:09:41;21.10;99.90
9965;DHT22;5023;53.554;9.964;2023-07-16T07:14:43;21.20;99.90
9965;DHT22;5023;53.554;9.964;2023-07-16T07:19:46;21.30;99.90
9965;DHT22;5023;53.554;9.964;2023-07-16T07:24:48;21.30;99.90
9965;DHT22;5023;53.554;9.964;2023-07-16T07:29:51;21.40;99.90
9965;DHT22;5023;53.554;9.964;2023-07-16T07:34:54;21.40;99.90
9965;DHT22;5023;53.554;9.964;2023-07-16T07:39:58;21.60;99.90
9965;DHT22;5023;53.554;9.964;2023-07-16T07:45:00;21.70;99.90
9965;DHT22;5023;53.554;9.964;2023-07-16T07:50:06;21.70;99.90
9965;DHT22;5023;53.554;9.964;2023-07-16T07:55:08;21.80;99.90
9965;DHT22;5023;53.554;9.964;2023-07-16T08:00:11;21.60;99.90
9965;DHT22;5023;53.554;9.964;2023-07-16T08:05:14;21.60;99.90
9965;DHT22;5023;53.554;9.964;2023-07-16T08:10:18;21.60;99.90
9965;DHT22;5023;53.554;9.964;2023-07-16T08:15:20;21.70;99.90
9965;DHT22;5023;53.554;9.964;2023-07-16T08:20:24;21.90;99.90
9965;DHT22;5023;53.554;9.964;2023-07-16T08:25:26;22.00;99.90
9965;DHT22;5023;53.554;9.964;2023-07-16T08:30:28;22.10;99.90
9965;DHT22;5023;53.554;9.964;2023-07-16T08:35:31;22.30;99.90
9965;DHT22;5023;53.554;9.964;2023-07-16T08:40:35;22.40;99.90
9965;DHT22;5023;53.554;9.964;2023-07-16T08:45:39;22.50;99.90
9965;DHT22;5023;53.554;9.964;2023-07-16T08:50:45;22.60;99.90
9965;DHT22;5023;53.554;9.964;2023-07-16T08:55:48;22.60;99.90
9965;DHT22;5023;53.554;9.964;2023-07-16T09:00:51;22.50;99.90
9965;DHT22;5023;53.554;9.964;2023-07-16T09:05:55;22.40;99.90
9965;DHT22;5023;53.554;9.964;2023-07-16T09:10:57;22.60;99.90
9965;DHT22;5023;53.554;9.964;2023-07-16T09:15:59;22.60;99.90
9965;DHT22;5023;53.554;9.964;2023-07-16T09:21:03;22.60;99.90
9965;DHT22;5023;53.554;9.964;2023-07-16T09:26:06;22.80;99.90
9965;DHT22;5023;53.554;9.964;2023-07-16T09:31:08;22.80;99.90
9965;DHT22;5023;53.554;9.964;2023-07-16T09:36:12;22.70;99.90
9965;DHT22;5023;53.554;9.964;2023-07-16T09:41:14;22.70;99.90
9965;DHT22;5023;53.554;9.964;2023-07-16T09:46:17;22.70;99.90
9965;DHT22;5023;53.554;9.964;2023-07-16T09:51:20;22.80;99.90
9965;DHT22;5023;53.554;9.964;2023-07-16T09:56:24;22.80;99.90
9965;DHT22;5023;53.554;9.964;2023-07-16T10:01:29;22.80;99.90
9965;DHT22;5023;53.554;9.964;2023-07-16T10:06:33;22.70;99.90
9965;DHT22;5023;53.554;9.964;2023-07-16T10:11:37;22.70;99.90
9965;DHT22;5023;53.554;9.964;2023-07-16T10:16:39;22.70;99.90
9965;DHT22;5023;53.554;9.964;2023-07-16T10:21:45;22.90;99.90
9965;DHT22;5023;53.554;9.964;2023-07-16T10:26:47;22.80;99.90
9965;DHT22;5023;53.554;9.964;2023-07-16T10:31:49;22.70;99.90
9965;DHT22;5023;53.554;9.964;2023-07-16T10:36:54;22.70;99.90
9965;DHT22;5023;53.554;9.964;2023-07-16T10:41:57;22.70;99.90
9965;DHT22;5023;53.554;9.964;2023-07-16T10:46:59;22.80;99.90
9965;DHT22;5023;53.554;9.964;2023-07-16T10:52:02;23.10;99.90
9965;DHT22;5023;53.554;9.964;2023-07-16T10:57:05;23.10;99.90
9965;DHT22;5023;53.554;9.964;2023-07-16T11:02:11;23.00;99.90
9965;DHT22;5023;53.554;9.964;2023-07-16T11:07:15;23.00;99.90
9965;DHT22;5023;53.554;9.964;2023-07-16T11:12:18;23.20;99.90
9965;DHT22;5023;53.554;9.964;2023-07-16T11:17:21;23.30;99.90
9965;DHT22;5023;53.554;9.964;2023-07-16T11:22:26;23.30;99.90
9965;DHT22;5023;53.554;9.964;2023-07-16T11:27:32;23.20;99.90
9965;DHT22;5023;53.554;9.964;2023-07-16T11:32:35;23.30;99.90
9965;DHT22;5023;53.554;9.964;2023-07-16T11:37:38;23.50;99.90
9965;DHT22;5023;53.554;9.964;2023-07-16T11:42:41;23.70;99.90
9965;DHT22;5023;53.554;9.964;2023-07-16T11:47:43;23.90;99.90
9965;DHT22;5023;53.554;9.964;2023-07-16T11:52:54;24.20;99.90
9965;DHT22;5023;53.554;9.964;2023-07-16T11:57:56;24.20;99.00
9965;DHT22;5023;53.554;9.964;2023-07-16T12:02:59;23.90;98.80
9965;DHT22;5023;53.554;9.964;2023-07-16T12:08:03;24.30;98.20
9965;DHT22;5023;53.554;9.964;2023-07-16T12:13:05;24.20;98.40
9965;DHT22;5023;53.554;9.964;2023-07-16T12:18:07;24.00;98.20
9965;DHT22;5023;53.554;9.964;2023-07-16T12:23:10;23.90;97.80
9965;DHT22;5023;53.554;9.964;2023-07-16T12:28:12;24.30;96.70
9965;DHT22;5023;53.554;9.964;2023-07-16T12:33:14;24.00;96.80
9965;DHT22;5023;53.554;9.964;2023-07-16T12:38:17;24.10;97.50
9965;DHT22;5023;53.554;9.964;2023-07-16T12:43:19;24.40;97.10
9965;DHT22;5023;53.554;9.964;2023-07-16T12:48:21;24.30;96.60
9965;DHT22;5023;53.554;9.964;2023-07-16T12:53:25;25.00;95.90
9965;DHT22;5023;53.554;9.964;2023-07-16T12:58:27;24.90;95.40
9965;DHT22;5023;53.554;9.964;2023-07-16T13:03:29;25.30;95.60
9965;DHT22;5023;53.554;9.964;2023-07-16T13:08:32;26.00;94.40
9965;DHT22;5023;53.554;9.964;2023-07-16T13:13:35;25.50;93.60
9965;DHT22;5023;53.554;9.964;2023-07-16T13:18:38;25.60;92.80
9965;DHT22;5023;53.554;9.964;2023-07-16T13:23:41;26.00;92.10
9965;DHT22;5023;53.554;9.964;2023-07-16T13:28:43;25.80;92.30
9965;DHT22;5023;53.554;9.964;2023-07-16T13:33:45;25.40;92.80
9965;DHT22;5023;53.554;9.964;2023-07-16T13:38:48;25.10;92.40
9965;DHT22;5023;53.554;9.964;2023-07-16T13:43:50;24.90;93.00
9965;DHT22;5023;53.554;9.964;2023-07-16T13:48:52;25.00;93.90
9965;DHT22;5023;53.554;9.964;2023-07-16T13:53:55;25.10;93.40
9965;DHT22;5023;53.554;9.964;2023-07-16T13:58:57;25.90;92.80
9965;DHT22;5023;53.554;9.964;2023-07-16T14:03:59;25.60;92.70
9965;DHT22;5023;53.554;9.964;2023-07-16T14:09:02;25.10;93.00
9965;DHT22;5023;53.554;9.964;2023-07-16T14:14:05;24.70;93.40
9965;DHT22;5023;53.554;9.964;2023-07-16T14:19:07;24.30;93.90
9965;DHT22;5023;53.554;9.964;2023-07-16T14:24:11;24.20;94.90
9965;DHT22;5023;53.554;9.964;2023-07-16T14:29:12;24.10;95.10
9965;DHT22;5023;53.554;9.964;2023-07-16T14:34:14;24.20;95.40
9965;DHT22;5023;53.554;9.964;2023-07-16T14:39:18;24.20;95.50
9965;DHT22;5023;53.554;9.964;2023-07-16T14:44:20;24.20;95.80
9965;DHT22;5023;53.554;9.964;2023-07-16T14:49:22;24.40;95.60
9965;DHT22;5023;53.554;9.964;2023-07-16T14:54:25;24.50;95.40
9965;DHT22;5023;53.554;9.964;2023-07-16T14:59:27;24.30;95.30
9965;DHT22;5023;53.554;9.964;2023-07-16T15:04:29;23.90;95.30
9965;DHT22;5023;53.554;9.964;2023-07-16T15:09:32;24.60;95.20
9965;DHT22;5023;53.554;9.964;2023-07-16T15:14:38;25.10;94.20
9965;DHT22;5023;53.554;9.964;2023-07-16T15:19:40;25.30;93.10
9965;DHT22;5023;53.554;9.964;2023-07-16T15:24:45;25.10;93.70
9965;DHT22;5023;53.554;9.964;2023-07-16T15:29:47;24.90;94.40
9965;DHT22;5023;53.554;9.964;2023-07-16T15:34:49;24.90;94.60
9965;DHT22;5023;53.554;9.964;2023-07-16T15:39:52;24.70;94.90
9965;DHT22;5023;53.554;9.964;2023-07-16T15:44:55;24.70;95.40
9965;DHT22;5023;53.554;9.964;2023-07-16T15:49:58;24.80;95.60
9965;DHT22;5023;53.554;9.964;2023-07-16T15:55:01;24.80;95.60
9965;DHT22;5023;53.554;9.964;2023-07-16T16:00:06;24.50;95.20
9965;DHT22;5023;53.554;9.964;2023-07-16T16:05:10;24.40;95.70
9965;DHT22;5023;53.554;9.964;2023-07-16T16:10:14;24.20;95.70
9965;DHT22;5023;53.554;9.964;2023-07-16T16:15:17;24.20;96.20
9965;DHT22;5023;53.554;9.964;2023-07-16T16:20:19;24.20;96.30
9965;DHT22;5023;53.554;9.964;2023-07-16T16:25:22;24.00;96.30
9965;DHT22;5023;53.554;9.964;2023-07-16T16:30:24;24.00;96.00
9965;DHT22;5023;53.554;9.964;2023-07-16T16:35:26;23.90;95.90
9965;DHT22;5023;53.554;9.964;2023-07-16T16:40:31;23.80;96.40
9965;DHT22;5023;53.554;9.964;2023-07-16T16:45:33;23.80;97.00
9965;DHT22;5023;53.554;9.964;2023-07-16T16:50:39;23.70;97.10
9965;DHT22;5023;53.554;9.964;2023-07-16T16:55:42;23.70;97.70
9965;DHT22;5023;53.554;9.964;2023-07-16T17:00:44;23.80;98.00
9965;DHT22;5023;53.554;9.964;2023-07-16T17:05:48;23.80;97.80
9965;DHT22;5023;53.554;9.964;2023-07-16T17:10:52;23.70;97.60
9965;DHT22;5023;53.554;9.964;2023-07-16T17:15:54;23.70;97.00
9965;DHT22;5023;53.554;9.964;2023-07-16T17:20:56;23.60;96.60
9965;DHT22;5023;53.554;9.964;2023-07-16T17:26:00;23.70;96.70
9965;DHT22;5023;53.554;9.964;2023-07-16T17:31:01;23.70;96.70
9965;DHT22;5023;53.554;9.964;2023-07-16T17:36:04;23.60;96.50
9965;DHT22;5023;53.554;9.964;2023-07-16T17:41:07;23.50;96.80
9965;DHT22;5023;53.554;9.964;2023-07-16T17:46:09;23.50;97.30
9965;DHT22;5023;53.554;9.964;2023-07-16T17:51:11;23.50;97.40
9965;DHT22;5023;53.554;9.964;2023-07-16T17:56:17;23.30;97.70
9965;DHT22;5023;53.554;9.964;2023-07-16T18:01:22;23.20;98.00
9965;DHT22;5023;53.554;9.964;2023-07-16T18:06:31;23.10;98.60
9965;DHT22;5023;53.554;9.964;2023-07-16T18:11:34;23.10;99.30
9965;DHT22;5023;53.554;9.964;2023-07-16T18:16:36;23.00;99.50
9965;DHT22;5023;53.554;9.964;2023-07-16T18:21:38;22.90;99.90
9965;DHT22;5023;53.554;9.964;2023-07-16T18:26:42;22.90;99.90
9965;DHT22;5023;53.554;9.964;2023-07-16T18:31:44;23.00;99.90
9965;DHT22;5023;53.554;9.964;2023-07-16T18:36:46;23.00;99.90
9965;DHT22;5023;53.554;9.964;2023-07-16T18:41:49;23.00;99.90
9965;DHT22;5023;53.554;9.964;2023-07-16T18:46:51;23.00;99.90
9965;DHT22;5023;53.554;9.964;2023-07-16T18:51:53;22.90;99.90
9965;DHT22;5023;53.554;9.964;2023-07-16T18:56:56;22.90;99.90
9965;DHT22;5023;53.554;9.964;2023-07-16T19:01:59;22.80;99.90
9965;DHT22;5023;53.554;9.964;2023-07-16T19:07:01;22.80;99.90
9965;DHT22;5023;53.554;9.964;2023-07-16T19:12:05;22.80;99.90
9965;DHT22;5023;53.554;9.964;2023-07-16T19:17:13;22.70;99.90
9965;DHT22;5023;53.554;9.964;2023-07-16T19:22:14;22.80;99.90
9965;DHT22;5023;53.554;9.964;2023-07-16T19:27:18;22.80;99.90
9965;DHT22;5023;53.554;9.964;2023-07-16T19:32:20;22.80;99.90
9965;DHT22;5023;53.554;9.964;2023-07-16T19:37:22;22.70;99.90
9965;DHT22;5023;53.554;9.964;2023-07-16T19:42:25;22.70;99.90
9965;DHT22;5023;53.554;9.964;2023-07-16T19:47:28;22.60;99.90
9965;DHT22;5023;53.554;9.964;2023-07-16T19:52:30;22.50;99.90
9965;DHT22;5023;53.554;9.964;2023-07-16T19:57:33;22.40;99.90
9965;DHT22;5023;53.554;9.964;2023-07-16T20:02:35;22.30;99.90
9965;DHT22;5023;53.554;9.964;2023-07-16T20:07:37;22.20;99.90
9965;DHT22;5023;53.554;9.964;2023-07-16T20:12:41;22.10;99.90
9965;DHT22;5023;53.554;9.964;2023-07-16T20:17:42;22.10;99.90
9965;DHT22;5023;53.554;9.964;2023-07-16T20:22:44;22.10;99.90
9965;DHT22;5023;53.554;9.964;2023-07-16T20:27:54;22.00;99.90
9965;DHT22;5023;53.554;9.964;2023-07-16T20:32:56;22.00;99.90
9965;DHT22;5023;53.554;9.964;2023-07-16T20:38:00;22.00;99.90
9965;DHT22;5023;53.554;9.964;2023-07-16T20:43:06;21.90;99.90
9965;DHT22;5023;53.554;9.964;2023-07-16T20:48:08;21.80;99.90
9965;DHT22;5023;53.554;9.964;2023-07-16T20:53:11;21.70;99.90
9965;DHT22;5023;53.554;9.964;2023-07-16T20:58:14;21.70;99.90
9965;DHT22;5023;53.554;9.964;2023-07-16T21:03:16;21.60;99.90
9965;DHT22;5023;53.554;9.964;2023-07-16T21:08:18;21.50;99.90
9965;DHT22;5023;53.554;9.964;2023-07-16T21:13:21;21.50;99.90
9965;DHT22;5023;53.554;9.964;2023-07-16T21:18:23;21.40;99.90
9965;DHT22;5023;53.554;9.964;2023-07-16T21:23:25;21.40;99.90
9965;DHT22;5023;53.554;9.964;2023-07-16T21:28:28;21.40;99.90
9965;DHT22;5023;53.554;9.964;2023-07-16T21:33:30;21.40;99.90
9965;DHT22;5023;53.554;9.964;2023-07-16T21:38:32;21.30;99.90
9965;DHT22;5023;53.554;9.964;2023-07-16T21:43:35;21.30;99.90
9965;DHT22;5023;53.554;9.964;2023-07-16T21:48:37;21.30;99.90
9965;DHT22;5023;53.554;9.964;2023-07-16T21:53:39;21.20;99.90
9965;DHT22;5023;53.554;9.964;2023-07-16T21:58:42;21.10;99.90
9965;DHT22;5023;53.554;9.964;2023-07-16T22:03:44;21.20;99.90
9965;DHT22;5023;53.554;9.964;2023-07-16T22:08:46;21.10;99.90
9965;DHT22;5023;53.554;9.964;2023-07-16T22:13:50;21.10;99.90
9965;DHT22;5023;53.554;9.964;2023-07-16T22:18:52;21.10;99.90
9965;DHT22;5023;53.554;9.964;2023-07-16T22:23:54;21.00;99.90
9965;DHT22;5023;53.554;9.964;2023-07-16T22:28:58;21.00;99.90
9965;DHT22;5023;53.554;9.964;2023-07-16T22:34:00;20.90;99.90
9965;DHT22;5023;53.554;9.964;2023-07-16T22:39:02;21.00;99.90
9965;DHT22;5023;53.554;9.964;2023-07-16T22:44:06;20.90;99.90
9965;DHT22;5023;53.554;9.964;2023-07-16T22:49:08;21.00;99.90
9965;DHT22;5023;53.554;9.964;2023-07-16T22:54:10;21.10;99.90
9965;DHT22;5023;53.554;9.964;2023-07-16T22:59:13;21.10;99.90
9965;DHT22;5023;53.554;9.964;2023-07-16T23:04:16;21.00;99.90
9965;DHT22;5023;53.554;9.964;2023-07-16T23:09:18;21.00;99.90
9965;DHT22;5023;53.554;9.964;2023-07-16T23:14:21;21.00;99.90
9965;DHT22;5023;53.554;9.964;2023-07-16T23:19:23;21.00;99.90
9965;DHT22;5023;53.554;9.964;2023-07-16T23:24:25;20.90;99.90
9965;DHT22;5023;53.554;9.964;2023-07-16T23:29:28;20.90;99.90
9965;DHT22;5023;53.554;9.964;2023-07-16T23:34:30;21.00;99.90
9965;DHT22;5023;53.554;9.964;2023-07-16T23:39:32;20.90;99.90
9965;DHT22;5023;53.554;9.964;2023-07-16T23:44:35;20.80;99.90
9965;DHT22;5023;53.554;9.964;2023-07-16T23:49:37;20.80;99.90
9965;DHT22;5023;53.554;9.964;2023-07-16T23:54:39;20.70;99.90
9965;DHT22;5023;53.554;9.964;2023-07-16T23:59:42;20.70;99.90
